Time;durP1;ratioP1;P1;durP2;ratioP2;P2;SDS_P1;SDS_P2;PMS_P1;PMS_P2;Temp;Humidity;BMP_temperature;BMP_pressure;BME280_temperature;BME280_humidity;BME280_pressure;Samples;Min_cycle;Max_cycle;Signal;HPM_P1;HPM_P2
2022/01/07 00:00:31;;;;;;;21.73;11.43;;;22.10;83.40;;;;;;1867540;74;21223;-80
2022/01/07 00:03:03;;;;;;;17.45;10.45;;;22.10;83.50;;;;;;1849727;75;21227;-80
2022/01/07 00:05:34;;;;;;;20.88;11.90;;;22.10;83.50;;;;;;1857795;75;21296;-81
2022/01/07 00:08:05;;;;;;;22.95;13.50;;;22.10;83.70;;;;;;1902210;73;21097;-80
2022/01/07 00:10:36;;;;;;;22.42;13.78;;;22.10;83.20;;;;;;1896907;74;21151;-81
2022/01/07 00:13:07;;;;;;;21.23;13.25;;;22.10;83.80;;;;;;1883210;74;21763;-81
2022/01/07 00:15:38;;;;;;;25.10;15.50;;;22.00;84.00;;;;;;1872440;74;21262;-82
2022/01/07 00:18:09;;;;;;;26.77;17.40;;;22.00;83.90;;;;;;1890552;74;21126;-82
2022/01/07 00:20:40;;;;;;;30.10;19.37;;;22.00;83.90;;;;;;1888986;73;21094;-81
2022/01/07 00:23:11;;;;;;;24.95;16.30;;;22.00;84.00;;;;;;1889947;73;21705;-81
2022/01/07 00:25:42;;;;;;;30.50;19.40;;;22.00;83.80;;;;;;1895340;74;21242;-82
2022/01/07 00:28:12;;;;;;;24.43;16.25;;;22.10;83.80;;;;;;1858337;75;21184;-81
2022/01/07 00:30:43;;;;;;;32.15;21.12;;;22.10;83.70;;;;;;1876458;75;21155;-81
2022/01/07 00:33:14;;;;;;;29.42;18.23;;;22.10;84.10;;;;;;1879139;75;21168;-81
2022/01/07 00:35:46;;;;;;;31.20;18.70;;;22.10;83.80;;;;;;1898217;73;21155;-93
2022/01/07 00:38:17;;;;;;;35.40;20.05;;;22.20;83.90;;;;;;1863422;75;21188;-81
2022/01/07 00:40:48;;;;;;;25.43;15.65;;;22.20;83.90;;;;;;1897234;75;21106;-80
2022/01/07 00:43:19;;;;;;;18.70;11.88;;;22.20;83.50;;;;;;1868082;75;21207;-79
2022/01/07 00:45:50;;;;;;;25.08;14.95;;;22.30;83.50;;;;;;1891296;74;21285;-80
2022/01/07 00:48:21;;;;;;;33.45;19.42;;;22.30;83.10;;;;;;1853028;73;21307;-80
2022/01/07 00:50:52;;;;;;;29.65;14.83;;;22.30;83.00;;;;;;1870310;75;21101;-80
2022/01/07 00:53:26;;;;;;;21.48;13.68;;;22.40;83.30;;;;;;1875438;76;21607;-81
2022/01/07 00:56:00;;;;;;;29.77;16.55;;;22.40;83.30;;;;;;1852303;74;21131;-80
2022/01/07 00:58:31;;;;;;;21.75;12.45;;;22.40;83.40;;;;;;1886985;73;21117;-81
2022/01/07 01:01:02;;;;;;;15.30;10.20;;;22.40;83.50;;;;;;1830244;77;21216;-80
2022/01/07 01:03:36;;;;;;;17.90;10.45;;;22.50;83.20;;;;;;1887183;74;21627;-80
2022/01/07 01:06:06;;;;;;;17.98;10.82;;;22.50;82.90;;;;;;1866866;75;21106;-80
2022/01/07 01:08:38;;;;;;;15.68;10.55;;;22.50;82.80;;;;;;1883764;75;21605;-80
2022/01/07 01:11:08;;;;;;;20.77;12.80;;;22.60;82.30;;;;;;1889831;74;21610;-80
2022/01/07 01:13:41;;;;;;;16.30;10.25;;;22.60;82.80;;;;;;1860725;75;21144;-80
2022/01/07 01:16:12;;;;;;;17.12;12.05;;;22.60;82.30;;;;;;1868658;75;21663;-80
2022/01/07 01:18:43;;;;;;;20.88;12.40;;;22.60;82.50;;;;;;1889781;74;21080;-80
2022/01/07 01:21:15;;;;;;;18.85;12.25;;;22.70;82.90;;;;;;1857500;76;21149;-80
2022/01/07 01:23:54;;;;;;;18.35;11.50;;;22.70;83.00;;;;;;1884096;74;21165;-79
2022/01/07 01:26:21;;;;;;;21.97;13.00;;;22.70;83.00;;;;;;1888735;73;21083;-81
2022/01/07 01:28:52;;;;;;;18.90;12.58;;;22.70;82.90;;;;;;1893262;74;21230;-80
2022/01/07 01:31:23;;;;;;;22.98;12.23;;;22.70;82.90;;;;;;1889808;74;21726;-81
2022/01/07 01:33:54;;;;;;;20.50;12.20;;;22.70;83.20;;;;;;1886126;73;21480;-80
2022/01/07 01:36:27;;;;;;;22.48;11.73;;;22.80;83.00;;;;;;1888298;74;21248;-80
2022/01/07 01:39:03;;;;;;;18.95;12.47;;;22.80;82.50;;;;;;1841929;75;21319;-80
2022/01/07 01:41:34;;;;;;;19.40;11.83;;;22.90;83.20;;;;;;1875331;75;21140;-80
2022/01/07 01:44:05;;;;;;;18.25;10.90;;;22.90;83.20;;;;;;1871407;75;21621;-80
2022/01/07 01:46:36;;;;;;;13.93;9.50;;;23.00;83.00;;;;;;1884725;74;21096;-81
2022/01/07 01:49:08;;;;;;;13.98;8.23;;;23.10;82.80;;;;;;1858281;75;21239;-80
2022/01/07 01:51:43;;;;;;;16.10;8.75;;;23.10;82.50;;;;;;1819499;76;21769;-80
2022/01/07 01:54:11;;;;;;;18.02;9.40;;;23.20;82.10;;;;;;1886748;74;21237;-80
2022/01/07 01:56:43;;;;;;;12.93;8.48;;;23.30;81.90;;;;;;1897274;74;21268;-80
2022/01/07 01:59:14;;;;;;;15.30;8.58;;;23.30;81.90;;;;;;1859316;75;21189;-80
2022/01/07 02:01:45;;;;;;;12.33;7.35;;;23.40;81.80;;;;;;1881732;75;21124;-80
2022/01/07 02:04:16;;;;;;;14.20;7.70;;;23.40;81.70;;;;;;1856361;75;21153;-81
2022/01/07 02:06:48;;;;;;;13.78;6.83;;;23.50;81.20;;;;;;1881231;74;21154;-81
2022/01/07 02:09:27;;;;;;;14.15;7.62;;;23.60;80.10;;;;;;1874196;75;21239;-82
2022/01/07 02:11:54;;;;;;;13.68;6.70;;;23.70;79.50;;;;;;1865417;74;21213;-80
2022/01/07 02:14:25;;;;;;;13.60;6.97;;;23.80;79.50;;;;;;1854063;77;21217;-81
2022/01/07 02:16:55;;;;;;;16.27;7.28;;;23.80;79.40;;;;;;1909187;74;21190;-81
2022/01/07 02:19:26;;;;;;;14.25;7.40;;;23.90;79.20;;;;;;1883538;75;21320;-81
2022/01/07 02:21:57;;;;;;;15.28;7.85;;;24.00;78.70;;;;;;1866289;74;21249;-82
2022/01/07 02:24:28;;;;;;;13.13;8.30;;;24.00;78.30;;;;;;1846157;75;21649;-79
2022/01/07 02:27:00;;;;;;;12.37;7.65;;;24.10;77.80;;;;;;1873992;75;21179;-70
2022/01/07 02:29:31;;;;;;;12.82;7.20;;;24.20;77.50;;;;;;1871434;74;21154;-70
2022/01/07 02:32:02;;;;;;;12.80;6.60;;;24.30;77.20;;;;;;1872871;75;21256;-71
2022/01/07 02:34:33;;;;;;;13.20;6.78;;;24.40;76.00;;;;;;1878137;74;21075;-70
2022/01/07 02:37:05;;;;;;;12.30;6.10;;;24.40;75.80;;;;;;1872612;75;21107;-70
2022/01/07 02:39:36;;;;;;;12.47;6.40;;;24.60;75.60;;;;;;1866430;74;21560;-71
2022/01/07 02:42:07;;;;;;;11.97;6.53;;;24.60;75.30;;;;;;1873622;75;21153;-70
2022/01/07 02:44:38;;;;;;;11.05;6.30;;;24.70;75.10;;;;;;1850789;76;21596;-71
2022/01/07 02:47:11;;;;;;;11.45;5.90;;;24.80;74.90;;;;;;1882042;75;21201;-71
2022/01/07 02:49:41;;;;;;;12.58;5.47;;;24.70;74.60;;;;;;1860408;76;21166;-71
2022/01/07 02:52:12;;;;;;;12.78;6.15;;;24.80;74.50;;;;;;1878958;74;21581;-71
2022/01/07 02:54:43;;;;;;;16.97;6.47;;;24.90;74.20;;;;;;1888502;74;21249;-70
2022/01/07 02:57:14;;;;;;;15.55;5.60;;;24.90;74.20;;;;;;1886978;74;21186;-71
2022/01/07 02:59:44;;;;;;;13.70;5.92;;;24.90;73.90;;;;;;1889222;74;21737;-70
2022/01/07 03:02:15;;;;;;;10.72;5.55;;;25.00;73.50;;;;;;1855206;75;21118;-70
2022/01/07 03:04:46;;;;;;;11.95;4.95;;;25.00;72.90;;;;;;1847751;75;21197;-71
2022/01/07 03:07:17;;;;;;;11.85;5.62;;;25.00;72.40;;;;;;1859671;74;21204;-71
2022/01/07 03:09:47;;;;;;;8.85;5.40;;;25.10;72.50;;;;;;1832537;76;21618;-70
2022/01/07 03:12:18;;;;;;;12.15;5.72;;;25.20;72.40;;;;;;1834736;76;21241;-70
2022/01/07 03:14:49;;;;;;;9.08;5.60;;;25.30;72.00;;;;;;1845738;75;21151;-74
2022/01/07 03:17:20;;;;;;;13.30;6.42;;;25.30;72.10;;;;;;1854800;74;21153;-72
2022/01/07 03:19:51;;;;;;;12.18;6.60;;;25.50;71.60;;;;;;1868001;75;21733;-73
2022/01/07 03:22:21;;;;;;;9.85;6.15;;;25.50;71.20;;;;;;1873989;74;22127;-73
2022/01/07 03:24:52;;;;;;;9.18;5.85;;;25.70;70.20;;;;;;1875577;75;21240;-72
2022/01/07 03:27:23;;;;;;;12.03;5.53;;;25.80;70.20;;;;;;1870596;75;21955;-73
2022/01/07 03:29:53;;;;;;;13.30;5.87;;;25.80;69.90;;;;;;1870173;75;21090;-73
2022/01/07 03:32:24;;;;;;;9.05;5.95;;;25.90;69.70;;;;;;1861834;76;21165;-73
2022/01/07 03:34:56;;;;;;;14.00;6.03;;;25.90;69.90;;;;;;1886330;74;21194;-72
2022/01/07 03:37:27;;;;;;;18.95;7.42;;;26.00;69.50;;;;;;1885150;74;21179;-72
2022/01/07 03:39:58;;;;;;;11.97;6.00;;;26.10;69.00;;;;;;1876583;74;21283;-72
2022/01/07 03:42:29;;;;;;;12.93;7.10;;;26.10;69.40;;;;;;1839507;76;21142;-71
2022/01/07 03:45:00;;;;;;;13.13;5.92;;;26.20;68.80;;;;;;1833350;77;21826;-71
2022/01/07 03:47:31;;;;;;;13.60;5.95;;;26.30;68.40;;;;;;1865896;75;21163;-71
2022/01/07 03:50:02;;;;;;;10.63;5.17;;;26.30;67.60;;;;;;1892312;75;21779;-71
2022/01/07 03:52:33;;;;;;;11.80;6.40;;;26.40;67.10;;;;;;1851788;76;21958;-72
2022/01/07 03:55:06;;;;;;;11.83;5.97;;;26.50;67.30;;;;;;1879946;75;21131;-72
2022/01/07 03:57:37;;;;;;;12.85;7.55;;;26.60;67.50;;;;;;1863264;74;21170;-73
2022/01/07 04:00:11;;;;;;;10.53;6.42;;;26.70;67.30;;;;;;1880641;74;21222;-71
2022/01/07 04:02:42;;;;;;;11.88;6.40;;;26.80;67.10;;;;;;1899851;74;21119;-71
2022/01/07 04:05:16;;;;;;;11.97;6.60;;;26.80;66.20;;;;;;1914177;74;21138;-70
2022/01/07 04:07:46;;;;;;;10.55;6.58;;;26.90;66.40;;;;;;1901950;74;21139;-71
2022/01/07 04:10:17;;;;;;;10.20;5.58;;;27.00;66.00;;;;;;1897871;74;21257;-71
2022/01/07 04:12:48;;;;;;;10.68;6.35;;;27.00;65.10;;;;;;1884562;73;21203;-71
2022/01/07 04:15:22;;;;;;;9.33;6.12;;;27.10;65.30;;;;;;1884808;74;21624;-70
2022/01/07 04:17:54;;;;;;;12.75;8.48;;;27.30;63.90;;;;;;1901943;74;21573;-71
2022/01/07 04:20:27;;;;;;;12.90;6.33;;;27.30;64.40;;;;;;1874503;74;21152;-71
2022/01/07 04:22:59;;;;;;;13.85;7.08;;;27.50;63.80;;;;;;1879879;75;21154;-71
2022/01/07 04:25:31;;;;;;;13.38;6.53;;;27.60;63.40;;;;;;1867637;75;21164;-71
2022/01/07 04:28:04;;;;;;;9.25;5.62;;;27.70;63.00;;;;;;1888894;75;21613;-71
2022/01/07 04:30:37;;;;;;;12.47;5.60;;;27.80;62.20;;;;;;1885961;74;21208;-71
2022/01/07 04:33:10;;;;;;;13.88;5.90;;;27.90;61.00;;;;;;1849197;76;21704;-71
2022/01/07 04:35:42;;;;;;;10.72;6.00;;;28.10;61.30;;;;;;1869952;74;21063;-72
2022/01/07 04:38:13;;;;;;;12.53;6.70;;;28.20;61.30;;;;;;1877363;74;21622;-71
2022/01/07 04:40:44;;;;;;;10.28;5.70;;;28.30;60.70;;;;;;1866942;75;21167;-71
2022/01/07 04:43:15;;;;;;;9.15;5.87;;;28.40;60.60;;;;;;1844687;75;21133;-71
2022/01/07 04:45:46;;;;;;;11.10;5.40;;;28.50;60.00;;;;;;1905248;74;21200;-71
2022/01/07 04:48:17;;;;;;;13.13;5.92;;;28.60;60.00;;;;;;1849284;75;21690;-70
2022/01/07 04:50:48;;;;;;;14.35;5.72;;;28.60;59.10;;;;;;1876137;75;21128;-71
2022/01/07 04:53:19;;;;;;;12.53;6.30;;;28.60;59.10;;;;;;1845754;75;21291;-76
2022/01/07 04:55:50;;;;;;;9.73;5.62;;;28.60;59.00;;;;;;1893070;74;21741;-72
2022/01/07 04:58:21;;;;;;;8.75;5.90;;;28.70;59.10;;;;;;1868789;76;21606;-72
2022/01/07 05:00:52;;;;;;;10.28;6.15;;;28.70;58.80;;;;;;1869129;74;21160;-71
2022/01/07 05:03:23;;;;;;;14.13;6.70;;;28.80;58.20;;;;;;1888701;74;21286;-72
2022/01/07 05:06:06;;;;;;;10.38;6.75;;;29.00;58.00;;;;;;1882161;74;21179;-72
2022/01/07 05:08:26;;;;;;;12.55;6.47;;;29.10;58.50;;;;;;1847549;75;21223;-72
2022/01/07 05:10:57;;;;;;;10.60;6.33;;;29.20;57.80;;;;;;1852896;76;21713;-72
2022/01/07 05:13:28;;;;;;;11.50;7.37;;;29.30;57.00;;;;;;1878330;75;21198;-72
2022/01/07 05:15:59;;;;;;;13.85;7.20;;;29.30;56.60;;;;;;1837503;75;21135;-72
2022/01/07 05:18:29;;;;;;;13.38;7.28;;;29.40;57.00;;;;;;1849791;75;21160;-71
2022/01/07 05:21:00;;;;;;;9.88;6.95;;;29.40;55.50;;;;;;1872587;74;21154;-72
2022/01/07 05:23:31;;;;;;;13.25;6.60;;;29.40;55.20;;;;;;1852170;76;21583;-71
2022/01/07 05:26:03;;;;;;;14.30;7.28;;;29.50;56.10;;;;;;1825675;76;21216;-71
2022/01/07 05:28:34;;;;;;;11.50;6.72;;;29.50;55.70;;;;;;1853091;75;21249;-71
2022/01/07 05:31:05;;;;;;;12.50;7.10;;;29.50;55.00;;;;;;1839569;77;21082;-71
2022/01/07 05:33:36;;;;;;;10.48;6.53;;;29.60;54.50;;;;;;1882918;74;21650;-71
2022/01/07 05:36:07;;;;;;;15.28;7.42;;;29.70;53.90;;;;;;1895344;73;21151;-71
2022/01/07 05:38:38;;;;;;;12.33;7.50;;;29.70;55.50;;;;;;1916885;73;21119;-72
2022/01/07 05:41:09;;;;;;;17.87;8.10;;;29.80;54.40;;;;;;1918818;73;21841;-72
2022/01/07 05:43:40;;;;;;;12.75;7.55;;;29.80;55.50;;;;;;1880988;74;21138;-72
2022/01/07 05:46:14;;;;;;;11.90;7.95;;;29.90;54.50;;;;;;1902917;73;21118;-72
2022/01/07 05:48:45;;;;;;;11.90;7.47;;;30.00;55.50;;;;;;1904553;74;21614;-72
2022/01/07 05:51:17;;;;;;;13.85;7.75;;;30.00;55.00;;;;;;1916462;73;21228;-72
2022/01/07 05:54:12;;;;;;;8.93;6.12;;;30.00;55.30;;;;;;1872324;74;21282;-71
2022/01/07 05:56:43;;;;;;;11.75;7.10;;;30.00;54.70;;;;;;1923231;73;21085;-72
2022/01/07 05:59:17;;;;;;;10.60;7.10;;;30.00;53.70;;;;;;1932623;72;21143;-71
2022/01/07 06:01:48;;;;;;;14.60;7.58;;;30.00;52.90;;;;;;1919976;74;21634;-71
2022/01/07 06:04:20;;;;;;;10.30;7.20;;;30.00;53.70;;;;;;1915121;74;21110;-70
2022/01/07 06:06:51;;;;;;;10.63;7.42;;;30.00;54.00;;;;;;1910658;74;21162;-71
2022/01/07 06:09:22;;;;;;;9.75;6.37;;;30.00;54.20;;;;;;1919303;73;21141;-70
2022/01/07 06:11:53;;;;;;;9.73;6.33;;;30.00;53.10;;;;;;1921277;73;21131;-71
2022/01/07 06:14:24;;;;;;;10.68;7.10;;;29.90;51.80;;;;;;1911560;74;21240;-70
2022/01/07 06:16:55;;;;;;;13.88;6.30;;;29.90;52.70;;;;;;1914791;74;21142;-71
2022/01/07 06:19:26;;;;;;;6.97;5.47;;;30.00;52.60;;;;;;1913806;73;21051;-71
2022/01/07 06:21:57;;;;;;;8.28;5.28;;;30.10;52.70;;;;;;1901485;74;21154;-69
2022/01/07 06:24:27;;;;;;;9.03;5.85;;;30.10;50.90;;;;;;1913221;74;21134;-70
2022/01/07 06:26:59;;;;;;;9.30;5.90;;;30.20;51.10;;;;;;1901322;73;21230;-70
2022/01/07 06:29:30;;;;;;;9.05;5.83;;;30.30;50.80;;;;;;1896109;74;21717;-70
2022/01/07 06:32:01;;;;;;;9.98;6.53;;;30.40;50.10;;;;;;1914690;73;21593;-70
2022/01/07 06:34:32;;;;;;;11.18;6.40;;;30.40;50.80;;;;;;1893922;74;21627;-70
2022/01/07 06:37:04;;;;;;;12.18;6.62;;;30.50;50.80;;;;;;1914791;74;21678;-71
2022/01/07 06:39:35;;;;;;;11.00;5.70;;;30.50;50.90;;;;;;1903527;74;21146;-70
2022/01/07 06:42:06;;;;;;;11.63;6.60;;;30.50;50.40;;;;;;1923457;73;21175;-70
2022/01/07 06:44:37;;;;;;;16.90;6.75;;;30.50;49.90;;;;;;1942749;73;21555;-71
2022/01/07 06:47:08;;;;;;;12.58;5.95;;;30.60;49.60;;;;;;1922020;74;21064;-71
2022/01/07 06:49:39;;;;;;;9.05;6.05;;;30.60;49.80;;;;;;1891849;74;21171;-71
2022/01/07 06:52:11;;;;;;;8.98;5.85;;;30.70;50.40;;;;;;1901109;73;21155;-70
2022/01/07 06:54:42;;;;;;;12.10;6.05;;;30.70;49.80;;;;;;1917708;73;21579;-72
2022/01/07 06:57:13;;;;;;;10.53;5.60;;;30.70;49.30;;;;;;1893019;75;21657;-70
2022/01/07 06:59:45;;;;;;;15.15;6.67;;;30.70;48.60;;;;;;1915888;72;21151;-71
2022/01/07 07:02:16;;;;;;;9.18;5.40;;;30.70;48.30;;;;;;1903489;73;21303;-69
2022/01/07 07:04:47;;;;;;;7.92;5.45;;;30.70;48.80;;;;;;1919424;73;21115;-69
2022/01/07 07:07:18;;;;;;;8.30;5.53;;;30.70;50.00;;;;;;1917529;73;21180;-69
2022/01/07 07:09:49;;;;;;;15.43;6.25;;;30.70;49.20;;;;;;1902711;73;21613;-69
2022/01/07 07:12:20;;;;;;;9.70;5.12;;;30.60;49.20;;;;;;1905333;74;22087;-69
2022/01/07 07:14:50;;;;;;;8.25;4.95;;;30.70;49.30;;;;;;1914749;74;21773;-69
2022/01/07 07:17:23;;;;;;;8.53;5.25;;;30.70;49.40;;;;;;1940937;72;21141;-69
2022/01/07 07:19:53;;;;;;;9.35;5.50;;;30.70;49.10;;;;;;1942248;73;21122;-69
2022/01/07 07:22:24;;;;;;;9.55;4.60;;;30.70;48.70;;;;;;1887347;74;21654;-70
2022/01/07 07:24:55;;;;;;;10.82;5.80;;;30.80;48.70;;;;;;1890651;73;21221;-69
2022/01/07 07:27:25;;;;;;;9.80;4.72;;;30.90;48.10;;;;;;1887382;74;21095;-69
2022/01/07 07:29:56;;;;;;;8.95;4.37;;;30.90;47.40;;;;;;1876440;74;21679;-69
2022/01/07 07:32:29;;;;;;;7.97;4.60;;;30.90;47.70;;;;;;1921723;73;21175;-70
2022/01/07 07:35:04;;;;;;;10.60;5.53;;;30.90;46.90;;;;;;1920730;73;21627;-70
2022/01/07 07:37:31;;;;;;;8.20;5.50;;;30.90;47.00;;;;;;1931954;73;21142;-70
2022/01/07 07:40:02;;;;;;;14.23;6.05;;;31.00;48.00;;;;;;1924536;73;21136;-71
2022/01/07 07:42:33;;;;;;;12.25;5.60;;;31.00;46.40;;;;;;1883683;75;21539;-69
2022/01/07 07:45:04;;;;;;;8.83;5.00;;;30.90;47.10;;;;;;1865627;75;21177;-69
2022/01/07 07:47:36;;;;;;;8.00;5.30;;;30.90;47.40;;;;;;1859786;76;21151;-70
2022/01/07 07:50:07;;;;;;;8.20;5.60;;;30.80;47.50;;;;;;1890021;73;21196;-68
2022/01/07 07:52:37;;;;;;;8.33;4.90;;;30.70;47.40;;;;;;1926210;73;21145;-71
2022/01/07 07:55:09;;;;;;;6.60;4.80;;;30.50;46.70;;;;;;1903486;73;21141;-68
2022/01/07 07:57:40;;;;;;;12.07;5.35;;;30.40;46.50;;;;;;1900915;73;21173;-70
2022/01/07 08:00:11;;;;;;;11.60;5.03;;;30.40;46.90;;;;;;1899913;73;21311;-68
2022/01/07 08:02:42;;;;;;;13.38;5.70;;;30.50;46.90;;;;;;1905737;73;21459;-70
2022/01/07 08:05:13;;;;;;;8.30;5.12;;;30.50;47.10;;;;;;1879460;74;21224;-68
2022/01/07 08:07:44;;;;;;;7.50;5.08;;;30.60;47.10;;;;;;1888039;74;21179;-70
2022/01/07 08:10:22;;;;;;;9.20;5.47;;;30.60;46.20;;;;;;1899488;74;21083;-68
2022/01/07 08:13:15;;;;;;;9.28;5.12;;;30.70;45.90;;;;;;1907487;73;21649;-70
2022/01/07 08:17:51;;;;;;;8.88;4.80;;;30.70;45.80;;;;;;1917944;72;21197;-70
2022/01/07 08:20:22;;;;;;;11.70;5.08;;;30.70;46.50;;;;;;1914949;73;21217;-70
2022/01/07 08:22:53;;;;;;;10.75;5.47;;;30.60;46.30;;;;;;1914486;73;21180;-70
2022/01/07 08:25:25;;;;;;;11.68;6.58;;;30.60;46.30;;;;;;1916167;73;21116;-68
2022/01/07 08:28:00;;;;;;;11.48;6.55;;;30.60;46.90;;;;;;1901191;73;21596;-69
2022/01/07 08:30:36;;;;;;;12.60;6.50;;;30.60;46.40;;;;;;1858331;75;21154;-69
2022/01/07 08:35:36;;;;;;;22.90;7.05;;;30.60;47.50;;;;;;1883817;74;21083;-70
2022/01/07 08:38:07;;;;;;;12.60;7.55;;;30.50;46.30;;;;;;1879125;74;21630;-70
2022/01/07 08:40:38;;;;;;;10.43;6.95;;;30.50;46.90;;;;;;1873298;74;21089;-69
2022/01/07 08:43:09;;;;;;;13.35;7.25;;;30.40;46.70;;;;;;1905930;74;21238;-70
2022/01/07 08:45:42;;;;;;;10.58;6.30;;;30.50;47.10;;;;;;1881200;74;21995;-69
2022/01/07 08:48:13;;;;;;;10.78;6.85;;;30.40;46.40;;;;;;1895840;74;21714;-70
2022/01/07 08:50:44;;;;;;;11.73;8.80;;;30.40;45.90;;;;;;1887357;73;21174;-70
2022/01/07 08:53:15;;;;;;;11.63;7.90;;;30.30;45.60;;;;;;1911271;73;21145;-70
2022/01/07 08:55:46;;;;;;;14.13;8.30;;;30.30;45.90;;;;;;1898764;74;21216;-71
2022/01/07 08:58:18;;;;;;;12.98;8.05;;;30.30;46.30;;;;;;1913761;74;21246;-70
2022/01/07 09:00:50;;;;;;;11.60;7.40;;;30.20;46.90;;;;;;1926260;74;21730;-71
2022/01/07 09:03:21;;;;;;;9.95;6.95;;;30.20;47.00;;;;;;1929037;73;21788;-71
2022/01/07 09:05:52;;;;;;;12.53;6.85;;;30.20;46.30;;;;;;1923464;73;21193;-71
2022/01/07 09:08:26;;;;;;;12.85;8.45;;;30.20;46.70;;;;;;1909335;72;21129;-71
2022/01/07 09:10:59;;;;;;;20.08;10.18;;;30.20;46.80;;;;;;1912687;72;21096;-71
2022/01/07 09:13:30;;;;;;;15.72;11.00;;;30.20;46.90;;;;;;1909360;73;21092;-71
2022/01/07 09:16:01;;;;;;;16.48;10.32;;;30.20;47.40;;;;;;1881162;76;21134;-71
2022/01/07 09:18:33;;;;;;;17.75;11.35;;;30.10;46.70;;;;;;1897042;74;21165;-71
2022/01/07 09:21:03;;;;;;;23.25;12.35;;;30.20;46.70;;;;;;1917053;74;21123;-71
2022/01/07 09:23:35;;;;;;;17.55;10.50;;;30.10;46.40;;;;;;1887833;75;21161;-71
2022/01/07 09:26:06;;;;;;;21.05;12.73;;;30.10;46.60;;;;;;1877318;74;21552;-71
2022/01/07 09:28:37;;;;;;;14.93;11.10;;;30.10;46.60;;;;;;1915467;73;22098;-71
2022/01/07 09:31:08;;;;;;;20.75;11.85;;;30.10;46.50;;;;;;1927365;73;21111;-71
2022/01/07 09:33:40;;;;;;;16.55;11.28;;;30.00;47.70;;;;;;1914646;74;21171;-71
2022/01/07 09:36:12;;;;;;;16.80;10.68;;;30.00;46.80;;;;;;1876132;75;21131;-71
2022/01/07 09:38:43;;;;;;;15.25;10.03;;;30.00;47.00;;;;;;1918013;74;21251;-70
2022/01/07 09:41:13;;;;;;;17.40;11.57;;;29.90;46.80;;;;;;1913700;74;21154;-69
2022/01/07 09:43:45;;;;;;;17.62;12.53;;;29.90;46.80;;;;;;1923624;73;21648;-69
2022/01/07 09:46:18;;;;;;;16.57;12.82;;;29.90;47.80;;;;;;1921455;74;21154;-69
2022/01/07 09:48:49;;;;;;;19.27;12.50;;;29.90;46.50;;;;;;1888003;74;21194;-69
2022/01/07 09:51:20;;;;;;;22.95;12.18;;;29.80;46.80;;;;;;1921847;73;21621;-70
2022/01/07 09:53:51;;;;;;;15.20;11.25;;;29.80;46.90;;;;;;1869965;75;21593;-70
2022/01/07 09:56:21;;;;;;;17.57;11.30;;;29.70;46.90;;;;;;1913413;73;21135;-70
2022/01/07 09:58:52;;;;;;;13.13;10.23;;;29.70;46.60;;;;;;1929684;74;21162;-70
2022/01/07 10:01:25;;;;;;;15.35;11.45;;;29.70;46.90;;;;;;1899574;74;21128;-70
2022/01/07 10:03:56;;;;;;;18.90;11.43;;;29.70;47.20;;;;;;1891401;74;21598;-70
2022/01/07 10:06:28;;;;;;;16.97;11.08;;;29.60;47.40;;;;;;1893125;73;21641;-69
2022/01/07 10:09:03;;;;;;;22.80;11.38;;;29.60;47.50;;;;;;1886929;75;21195;-70
2022/01/07 10:11:35;;;;;;;16.12;11.75;;;29.50;47.80;;;;;;1923263;74;21508;-69
2022/01/07 10:14:08;;;;;;;19.00;10.80;;;29.50;48.20;;;;;;1914358;74;21595;-71
2022/01/07 10:16:42;;;;;;;19.25;10.80;;;29.50;48.40;;;;;;1924397;74;21614;-71
2022/01/07 10:19:15;;;;;;;16.67;10.18;;;29.40;48.60;;;;;;1922257;74;21144;-70
2022/01/07 10:21:48;;;;;;;16.27;10.03;;;29.40;49.00;;;;;;1918087;73;21908;-70
2022/01/07 10:24:19;;;;;;;19.15;11.73;;;29.30;49.10;;;;;;1921212;73;21669;-69
2022/01/07 10:26:52;;;;;;;16.87;11.20;;;29.30;49.10;;;;;;1929014;73;21151;-70
2022/01/07 10:29:26;;;;;;;16.55;11.40;;;29.30;49.20;;;;;;1883163;74;21114;-70
2022/01/07 10:31:59;;;;;;;21.57;13.00;;;29.20;49.30;;;;;;1890512;74;21620;-70
2022/01/07 10:34:30;;;;;;;19.75;13.20;;;29.20;49.30;;;;;;1909238;74;21170;-70
2022/01/07 10:37:03;;;;;;;21.00;12.55;;;29.20;49.70;;;;;;1915041;73;21150;-71
2022/01/07 10:39:34;;;;;;;17.95;11.57;;;29.10;49.80;;;;;;1916047;73;21145;-71
2022/01/07 10:42:06;;;;;;;17.87;10.98;;;29.00;50.00;;;;;;1889105;74;21163;-70
2022/01/07 10:44:39;;;;;;;19.90;11.33;;;29.00;50.70;;;;;;1937238;73;21166;-69
2022/01/07 10:47:11;;;;;;;16.90;11.00;;;29.00;51.20;;;;;;1892773;74;21185;-70
2022/01/07 10:49:41;;;;;;;18.95;11.43;;;29.00;51.20;;;;;;1896012;74;21205;-70
2022/01/07 10:52:14;;;;;;;17.27;11.15;;;28.90;51.40;;;;;;1876813;74;21250;-71
2022/01/07 10:54:45;;;;;;;19.62;10.82;;;28.80;51.80;;;;;;1889135;74;21601;-71
2022/01/07 10:57:16;;;;;;;17.60;10.05;;;28.80;52.00;;;;;;1888972;74;21232;-71
2022/01/07 10:59:49;;;;;;;15.95;9.93;;;28.70;52.30;;;;;;1921032;74;21202;-71
2022/01/07 11:02:23;;;;;;;21.33;10.03;;;28.70;52.40;;;;;;1908819;74;21652;-85
2022/01/07 11:04:54;;;;;;;18.07;9.78;;;28.60;52.50;;;;;;1910063;74;21073;-84
2022/01/07 11:07:25;;;;;;;18.85;10.48;;;28.60;52.80;;;;;;1925897;74;21139;-85
2022/01/07 11:09:56;;;;;;;22.70;11.12;;;28.50;52.70;;;;;;1910465;73;21156;-84
2022/01/07 11:12:29;;;;;;;25.27;11.22;;;28.40;52.90;;;;;;1918338;73;21230;-84
2022/01/07 11:15:00;;;;;;;22.22;11.25;;;28.30;53.40;;;;;;1931676;73;21628;-86
2022/01/07 11:17:31;;;;;;;19.67;11.53;;;28.30;53.50;;;;;;1944382;73;21650;-84
2022/01/07 11:20:03;;;;;;;22.45;11.22;;;28.20;53.50;;;;;;1931431;73;21176;-84
2022/01/07 11:22:38;;;;;;;18.02;11.68;;;28.10;53.30;;;;;;1930604;73;21659;-84
2022/01/07 11:25:10;;;;;;;18.17;11.20;;;28.10;53.60;;;;;;1900761;74;21132;-85
2022/01/07 11:27:43;;;;;;;17.48;10.38;;;28.00;53.80;;;;;;1918635;74;21112;-85
2022/01/07 11:30:18;;;;;;;24.10;11.08;;;28.00;53.80;;;;;;1918063;74;21678;-84
2022/01/07 11:32:50;;;;;;;22.07;9.80;;;27.90;54.00;;;;;;1915461;72;21231;-84
2022/01/07 11:35:23;;;;;;;21.17;10.05;;;27.90;54.30;;;;;;1908429;74;21128;-83
2022/01/07 11:37:57;;;;;;;18.98;10.10;;;27.90;55.10;;;;;;1916768;74;21135;-85
2022/01/07 11:40:33;;;;;;;22.40;10.13;;;27.80;54.50;;;;;;1915419;74;21194;-84
2022/01/07 11:43:04;;;;;;;19.67;10.15;;;27.80;54.80;;;;;;1914217;74;21097;-84
2022/01/07 11:45:38;;;;;;;17.73;10.55;;;27.80;54.80;;;;;;1899388;73;21162;-84
2022/01/07 11:48:11;;;;;;;24.20;10.82;;;27.80;55.20;;;;;;1901397;73;21155;-85
2022/01/07 11:50:44;;;;;;;22.20;10.50;;;27.80;55.30;;;;;;1898533;74;21272;-84
2022/01/07 11:53:15;;;;;;;21.70;10.60;;;27.70;55.30;;;;;;1914127;74;21109;-84
2022/01/07 11:55:46;;;;;;;22.93;12.35;;;27.70;55.40;;;;;;1917052;72;21163;-85
2022/01/07 11:58:17;;;;;;;24.32;14.38;;;27.70;55.50;;;;;;1915451;72;21172;-84
2022/01/07 12:00:50;;;;;;;26.60;17.35;;;27.70;55.60;;;;;;1912189;74;21607;-85
2022/01/07 12:03:24;;;;;;;42.55;20.70;;;27.70;55.70;;;;;;1896156;74;21232;-85
2022/01/07 12:05:55;;;;;;;40.08;23.18;;;27.70;55.70;;;;;;1913285;74;21429;-84
2022/01/07 12:08:29;;;;;;;38.50;24.30;;;27.70;55.70;;;;;;1914439;73;21133;-85
2022/01/07 12:11:02;;;;;;;44.77;29.48;;;27.70;56.50;;;;;;1913592;74;21212;-85
2022/01/07 12:13:35;;;;;;;59.25;34.45;;;27.70;55.70;;;;;;1916905;73;21084;-86
2022/01/07 12:16:07;;;;;;;55.48;35.70;;;27.70;55.70;;;;;;1894018;73;21579;-85
2022/01/07 12:18:38;;;;;;;55.15;36.40;;;27.70;55.50;;;;;;1882119;75;21535;-79
2022/01/07 12:21:09;;;;;;;55.90;36.10;;;27.70;55.80;;;;;;1910931;74;21138;-78
2022/01/07 12:23:41;;;;;;;54.45;35.70;;;27.70;55.80;;;;;;1896110;74;21687;-81
2022/01/07 12:26:12;;;;;;;68.02;36.42;;;27.70;55.80;;;;;;1905334;73;21139;-81
2022/01/07 12:28:48;;;;;;;69.55;39.25;;;27.60;55.80;;;;;;1921929;72;21131;-80
2022/01/07 12:31:16;;;;;;;59.45;40.08;;;27.60;55.70;;;;;;1925880;73;21087;-80
2022/01/07 12:33:50;;;;;;;56.77;36.70;;;27.60;55.70;;;;;;1945094;73;21116;-80
2022/01/07 12:36:23;;;;;;;52.50;36.85;;;27.60;55.80;;;;;;1923063;73;21153;-79
2022/01/07 12:38:56;;;;;;;57.35;36.70;;;27.60;55.70;;;;;;1890973;73;21543;-80
2022/01/07 12:41:27;;;;;;;54.77;34.63;;;27.60;55.70;;;;;;1910486;73;21237;-80
2022/01/07 12:44:00;;;;;;;53.60;32.65;;;27.50;55.60;;;;;;1916381;74;21646;-80
2022/01/07 12:46:31;;;;;;;49.95;30.48;;;27.50;55.70;;;;;;1921434;72;21719;-80
2022/01/07 12:49:02;;;;;;;44.18;28.85;;;27.50;55.70;;;;;;1904404;72;21652;-83
2022/01/07 12:51:35;;;;;;;40.60;27.80;;;27.50;55.70;;;;;;1930297;73;21205;-80
2022/01/07 12:54:07;;;;;;;39.70;24.98;;;27.50;55.80;;;;;;1937136;73;21193;-81
2022/01/07 12:56:40;;;;;;;33.90;22.32;;;27.40;55.60;;;;;;1929443;73;21099;-80
2022/01/07 12:59:14;;;;;;;38.80;23.83;;;27.40;55.60;;;;;;1925060;73;21110;-80